Time;durP1;ratioP1;P1;durP2;ratioP2;P2;SDS_P1;SDS_P2;PMS_P1;PMS_P2;Temp;Humidity;BMP_temperature;BMP_pressure;BME280_temperature;BME280_humidity;BME280_pressure;Samples;Min_cycle;Max_cycle;Signal;HPM_P1;HPM_P2
2021/08/20 00:00:40;;;;;;;6.12;4.00;;;;;;;23.60;88.78;99095.50;4637273;77;28504;-83
2021/08/20 00:06:42;;;;;;;8.73;4.40;;;;;;;23.51;88.42;99102.89;4388371;80;28461;-84
2021/08/20 00:12:43;;;;;;;8.40;4.20;;;;;;;23.37;92.30;99102.41;4359889;81;28533;-81
2021/08/20 00:18:45;;;;;;;8.30;4.72;;;;;;;23.32;90.63;99097.07;4341023;79;28491;-83
2021/08/20 00:24:46;;;;;;;8.28;4.58;;;;;;;23.24;93.79;99103.28;4355603;79;28476;-83
2021/08/20 00:30:47;;;;;;;7.70;4.00;;;;;;;22.94;94.85;99098.83;4408294;80;28462;-82
2021/08/20 00:36:49;;;;;;;6.22;3.95;;;;;;;22.94;96.18;99098.28;4373630;81;28493;-82
2021/08/20 00:42:50;;;;;;;7.12;4.00;;;;;;;22.88;96.60;99100.09;4352946;82;28522;-81
2021/08/20 00:48:52;;;;;;;7.20;4.12;;;;;;;22.77;97.14;99100.89;4570045;77;28458;-82
2021/08/20 00:54:54;;;;;;;6.72;4.37;;;;;;;27.00;65.03;99089.43;4582606;77;28558;-83
2021/08/20 01:00:56;;;;;;;7.08;4.15;;;;;;;27.07;63.24;99099.31;4492688;79;28477;-84
2021/08/20 01:07:01;;;;;;;5.28;3.62;;;;;;;26.88;64.74;99092.95;4500641;79;28497;-85
2021/08/20 01:13:03;;;;;;;6.70;3.65;;;;;;;26.50;66.25;99088.39;4505670;78;28532;-83
2021/08/20 01:19:05;;;;;;;6.35;3.72;;;;;;;26.54;64.67;99090.72;4494374;79;28469;-83
2021/08/20 01:25:08;;;;;;;5.67;4.03;;;;;;;26.27;67.67;99095.63;4500480;78;28515;-84
2021/08/20 01:31:15;;;;;;;5.62;3.40;;;;;;;23.50;89.82;99097.95;4591205;77;28503;-83
2021/08/20 01:37:17;;;;;;;6.33;3.37;;;;;;;23.20;91.83;99101.73;4585715;77;28485;-83
2021/08/20 01:43:21;;;;;;;7.75;3.58;;;;;;;23.30;91.03;99100.70;4584797;78;28463;-83
2021/08/20 01:49:22;;;;;;;5.25;3.60;;;;;;;23.09;92.59;99093.52;4585325;76;28450;-83
2021/08/20 01:55:24;;;;;;;6.40;3.77;;;;;;;22.92;95.92;99095.59;4585708;77;28489;-83
2021/08/20 02:01:27;;;;;;;6.67;3.58;;;;;;;22.92;92.45;99092.31;4591834;77;28544;-82
2021/08/20 02:07:29;;;;;;;5.72;3.40;;;;;;;22.82;100.00;99096.09;4593098;77;28548;-83
2021/08/20 02:13:31;;;;;;;5.78;3.40;;;;;;;22.82;97.66;99094.73;4592771;77;28438;-84
2021/08/20 02:19:34;;;;;;;5.62;3.77;;;;;;;23.03;96.76;99085.99;4593246;77;28513;-84
2021/08/20 02:25:36;;;;;;;5.17;3.50;;;;;;;22.68;100.00;99082.45;4593291;76;28464;-84
2021/08/20 02:31:38;;;;;;;4.47;3.25;;;;;;;23.04;98.11;99079.96;4607925;77;28464;-83
2021/08/20 02:37:39;;;;;;;6.62;3.52;;;;;;;22.78;99.98;99083.33;4607736;77;28821;-83
2021/08/20 02:43:41;;;;;;;6.47;3.77;;;;;;;22.53;100.00;99082.26;4607920;77;28460;-82
2021/08/20 02:49:42;;;;;;;5.90;3.83;;;;;;;22.81;99.03;99079.98;4607834;76;28458;-82
2021/08/20 02:55:45;;;;;;;5.28;3.30;;;;;;;22.79;97.72;99086.31;4607546;77;28490;-82
2021/08/20 03:01:48;;;;;;;6.12;3.90;;;;;;;22.71;98.70;99083.77;4594537;77;28482;-83
2021/08/20 03:07:50;;;;;;;6.83;4.12;;;;;;;22.91;98.64;99085.21;4591021;77;28505;-82
2021/08/20 03:13:53;;;;;;;8.03;4.08;;;;;;;22.95;97.84;99088.11;4591695;77;28528;-81
2021/08/20 03:19:55;;;;;;;6.87;4.10;;;;;;;22.91;94.96;99086.58;4591821;77;28477;-82
2021/08/20 03:25:57;;;;;;;6.58;3.98;;;;;;;22.78;99.52;99088.27;4595490;77;28432;-81
2021/08/20 03:31:59;;;;;;;7.00;3.90;;;;;;;23.15;91.56;99090.08;4620775;77;28492;-83
2021/08/20 03:38:01;;;;;;;6.40;3.72;;;;;;;23.06;94.99;99088.09;4621022;77;28486;-81
2021/08/20 03:44:07;;;;;;;7.10;3.80;;;;;;;22.75;96.93;99099.83;4621595;77;28470;-82
2021/08/20 03:50:10;;;;;;;6.37;3.95;;;;;;;22.75;96.93;99099.83;4619850;77;28513;-82
2021/08/20 03:56:12;;;;;;;6.15;3.90;;;;;;;22.46;100.00;99105.15;4620619;77;28480;-82
2021/08/20 04:02:16;;;;;;;6.42;3.60;;;;;;;23.00;94.57;99098.96;4595290;77;28572;-81
2021/08/20 04:08:19;;;;;;;8.15;4.40;;;;;;;22.93;97.35;99099.95;4593033;77;28521;-82
2021/08/20 04:14:26;;;;;;;6.58;3.72;;;;;;;22.81;96.45;99110.13;4574796;77;28511;-82
2021/08/20 04:20:29;;;;;;;5.40;3.40;;;;;;;22.63;100.00;99111.91;4571927;77;28505;-81
2021/08/20 04:26:31;;;;;;;5.72;3.45;;;;;;;22.74;100.00;99111.11;4578576;77;28521;-83
2021/08/20 04:32:38;;;;;;;6.25;3.67;;;;;;;22.63;100.00;99110.53;4528360;77;28457;-81
2021/08/20 04:38:50;;;;;;;6.40;3.95;;;;;;;22.67;100.00;99110.98;4438542;77;28467;-81
2021/08/20 04:44:53;;;;;;;6.90;3.83;;;;;;;22.79;100.00;99110.43;4548985;77;28495;-80
2021/08/20 04:51:06;;;;;;;7.30;4.10;;;;;;;23.14;97.92;99115.34;4564070;77;28469;-85
2021/08/20 04:57:09;;;;;;;5.17;3.65;;;;;;;23.44;93.33;99113.50;4507765;77;28529;-81
2021/08/20 05:03:10;;;;;;;8.35;4.50;;;;;;;23.24;97.36;99112.33;4442319;79;28468;-82
2021/08/20 05:09:12;;;;;;;6.70;4.20;;;;;;;23.14;99.75;99120.83;4492517;79;28510;-81
2021/08/20 05:15:13;;;;;;;6.83;4.62;;;;;;;22.96;100.00;99115.77;4401773;80;28505;-83
2021/08/20 05:21:14;;;;;;;10.68;4.47;;;;;;;22.91;100.00;99120.02;4428187;80;28452;-81
2021/08/20 05:27:16;;;;;;;5.92;4.12;;;;;;;22.97;100.00;99124.27;4428409;80;28489;-82
2021/08/20 05:33:17;;;;;;;7.17;3.92;;;;;;;23.14;100.00;99126.86;4428550;80;28478;-82
2021/08/20 05:39:18;;;;;;;8.53;4.75;;;;;;;23.04;100.00;99132.84;4427668;80;28515;-83
2021/08/20 05:45:20;;;;;;;7.70;4.33;;;;;;;23.12;100.00;99139.53;4486501;78;28446;-83
2021/08/20 05:51:21;;;;;;;7.67;4.72;;;;;;;23.48;99.13;99129.56;4485342;79;28499;-83
2021/08/20 05:57:22;;;;;;;11.70;4.78;;;;;;;23.55;96.95;99136.00;4485315;79;28446;-82
2021/08/20 06:03:24;;;;;;;8.33;4.55;;;;;;;23.35;96.72;99131.30;4484912;79;28471;-81
2021/08/20 06:09:27;;;;;;;9.43;4.45;;;;;;;23.78;94.58;99127.93;4470583;78;28856;-82
2021/08/20 06:15:29;;;;;;;7.67;4.50;;;;;;;23.84;92.33;99127.22;4484636;78;28472;-82
2021/08/20 06:21:30;;;;;;;8.48;4.87;;;;;;;24.09;89.01;99124.34;4483978;78;28481;-83
2021/08/20 06:27:31;;;;;;;10.93;5.25;;;;;;;24.21;86.54;99136.08;4420433;80;28548;-83
2021/08/20 06:33:36;;;;;;;9.28;4.67;;;;;;;24.19;87.76;99136.15;4415433;81;28458;-82
2021/08/20 06:39:38;;;;;;;8.05;3.92;;;;;;;24.08;89.20;99135.08;4450421;78;28487;-82
2021/08/20 06:45:40;;;;;;;7.40;4.17;;;;;;;24.42;86.21;99134.64;4380213;79;28446;-83
2021/08/20 06:51:41;;;;;;;7.20;4.15;;;;;;;24.56;85.61;99141.36;4385007;79;28489;-84
2021/08/20 06:57:42;;;;;;;8.90;4.20;;;;;;;24.65;85.62;99138.05;4461889;77;28596;-84
2021/08/20 07:03:45;;;;;;;5.55;3.83;;;;;;;24.84;84.80;99151.49;4479543;78;28532;-86
2021/08/20 07:09:46;;;;;;;7.30;4.08;;;;;;;25.03;83.43;99153.10;4466288;79;28479;-84
2021/08/20 07:15:48;;;;;;;7.30;3.98;;;;;;;25.17;79.59;99153.71;4419106;79;28564;-83
2021/08/20 07:21:49;;;;;;;7.83;4.20;;;;;;;25.18;79.79;99157.28;4393795;79;28525;-83
2021/08/20 07:27:51;;;;;;;6.95;3.70;;;;;;;25.77;76.99;99172.34;4391293;80;28478;-82
2021/08/20 07:33:53;;;;;;;7.87;3.92;;;;;;;26.08;70.85;99175.36;4400208;79;28478;-82
2021/08/20 07:39:54;;;;;;;7.87;3.90;;;;;;;26.15;68.40;99170.73;4397381;79;28473;-82
2021/08/20 07:45:56;;;;;;;4.53;3.45;;;;;;;26.47;64.88;99168.45;4483329;79;28535;-82
2021/08/20 07:51:59;;;;;;;8.85;3.80;;;;;;;26.89;63.19;99167.65;4389251;79;28551;-82
2021/08/20 07:58:00;;;;;;;8.53;4.05;;;;;;;26.90;62.86;99170.64;4401656;78;28462;-83
2021/08/20 08:04:02;;;;;;;6.90;4.20;;;;;;;27.44;61.40;99170.37;4387133;80;28510;-83
2021/08/20 08:10:05;;;;;;;7.85;3.65;;;;;;;27.67;58.91;99175.50;4365677;79;28532;-82
2021/08/20 08:16:07;;;;;;;7.28;4.40;;;;;;;27.78;60.25;99168.94;4406171;79;28541;-82
2021/08/20 08:22:08;;;;;;;7.42;3.65;;;;;;;27.75;57.82;99167.70;4430795;79;28514;-81
2021/08/20 08:28:09;;;;;;;6.80;3.75;;;;;;;27.62;60.61;99175.16;4446865;79;28650;-79
2021/08/20 08:34:10;;;;;;;7.00;3.72;;;;;;;27.84;59.31;99171.72;4369402;80;28453;-82
2021/08/20 08:40:17;;;;;;;6.97;4.15;;;;;;;28.01;58.00;99174.83;4379782;80;28469;-81
2021/08/20 08:46:22;;;;;;;8.10;3.92;;;;;;;28.06;57.00;99178.73;4385930;80;28457;-82
2021/08/20 08:52:23;;;;;;;7.42;3.80;;;;;;;28.14;57.89;99185.30;4379220;80;28561;-81
2021/08/20 08:58:24;;;;;;;9.08;3.52;;;;;;;28.39;57.25;99187.50;4362092;80;28463;-82
2021/08/20 09:04:25;;;;;;;7.62;3.52;;;;;;;28.52;53.56;99187.47;4287688;81;28459;-82
2021/08/20 09:10:27;;;;;;;6.80;3.40;;;;;;;28.81;52.94;99185.56;4297386;81;28511;-83
2021/08/20 09:16:40;;;;;;;5.92;3.65;;;;;;;29.02;53.96;99189.53;4305910;80;28509;-82
2021/08/20 09:22:41;;;;;;;4.78;3.47;;;;;;;29.27;50.70;99180.31;4420570;79;28565;-83
2021/08/20 09:28:43;;;;;;;5.03;3.35;;;;;;;29.25;52.62;99177.09;4422160;80;28456;-82
2021/08/20 09:34:49;;;;;;;5.60;3.20;;;;;;;29.26;48.94;99179.49;4395982;79;28452;-83
2021/08/20 09:40:57;;;;;;;4.95;2.67;;;;;;;29.57;48.52;99162.72;4440673;79;28559;-85
2021/08/20 09:47:02;;;;;;;3.90;3.08;;;;;;;30.02;48.30;99150.16;4414504;79;28506;-83
2021/08/20 09:53:13;;;;;;;3.67;2.98;;;;;;;29.75;46.39;99151.30;4445997;79;28459;-85
2021/08/20 09:59:15;;;;;;;3.22;2.35;;;;;;;29.77;44.16;99153.12;4410889;79;28528;-85
2021/08/20 10:05:18;;;;;;;4.87;2.75;;;;;;;29.67;43.35;99152.27;4556062;76;28448;-84
2021/08/20 10:11:23;;;;;;;3.95;2.60;;;;;;;29.34;44.90;99148.67;4567631;76;28481;-83
2021/08/20 10:17:24;;;;;;;4.65;2.15;;;;;;;29.40;45.32;99140.31;4541743;77;28461;-83
2021/08/20 10:23:26;;;;;;;5.28;2.42;;;;;;;29.25;45.71;99133.59;4555194;77;28444;-80
2021/08/20 10:29:31;;;;;;;3.02;2.20;;;;;;;29.05;44.83;99125.20;4555736;76;28507;-85
2021/08/20 10:35:55;;;;;;;3.02;2.20;;;;;;;29.17;45.55;99120.15;4562506;77;28465;-83
2021/08/20 10:42:06;;;;;;;2.40;1.80;;;;;;;28.51;43.69;99127.80;4570126;76;28452;-84
2021/08/20 10:48:15;;;;;;;3.25;2.10;;;;;;;28.88;44.04;99123.52;4554296;76;28546;-83
2021/08/20 10:54:34;;;;;;;4.17;2.35;;;;;;;28.99;43.13;99120.25;4542033;76;28490;-84
2021/08/20 11:00:39;;;;;;;2.67;2.02;;;;;;;28.55;45.84;99124.55;4556648;76;28481;-83
2021/08/20 11:06:52;;;;;;;2.87;2.02;;;;;;;28.73;45.63;99113.98;4569254;76;28449;-83
2021/08/20 11:13:01;;;;;;;2.35;1.95;;;;;;;28.08;49.88;99107.92;4567881;76;28580;-80
2021/08/20 11:19:02;;;;;;;4.03;2.00;;;;;;;28.31;47.20;99105.50;4589551;77;28532;-83
2021/08/20 11:25:16;;;;;;;3.33;2.08;;;;;;;28.29;45.22;99103.67;4605533;76;28428;-83
2021/08/20 11:31:19;;;;;;;2.37;1.75;;;;;;;28.41;43.65;99100.05;4561296;76;28471;-83
2021/08/20 11:37:20;;;;;;;4.45;2.00;;;;;;;28.97;42.82;99097.09;4574510;76;28504;-82
2021/08/20 11:43:22;;;;;;;2.33;2.00;;;;;;;29.26;42.92;99090.12;4561482;76;28564;-83
2021/08/20 11:49:27;;;;;;;3.02;2.15;;;;;;;28.64;41.81;99098.15;4564696;77;28469;-82
2021/08/20 11:55:29;;;;;;;3.35;2.22;;;;;;;29.28;42.36;99093.33;4587875;76;28474;-82
2021/08/20 12:01:31;;;;;;;3.92;2.08;;;;;;;28.06;43.21;99099.97;4512358;76;28524;-81
2021/08/20 12:07:34;;;;;;;2.58;2.15;;;;;;;28.67;43.75;99094.67;4532069;76;28503;-81
2021/08/20 12:13:46;;;;;;;3.42;2.20;;;;;;;28.27;44.52;99093.52;4524833;77;28907;-80
2021/08/20 12:19:48;;;;;;;2.20;2.00;;;;;;;28.75;44.17;99092.34;4545408;76;28519;-80
2021/08/20 12:25:49;;;;;;;3.30;1.90;;;;;;;29.73;42.16;99089.91;4553351;76;28497;-81
2021/08/20 12:31:57;;;;;;;2.67;1.87;;;;;;;30.17;40.48;99091.72;4547692;77;28759;-87
2021/08/20 12:38:07;;;;;;;2.80;2.08;;;;;;;30.20;40.76;99082.67;4517932;77;28453;-85
2021/08/20 12:44:10;;;;;;;1.98;1.60;;;;;;;30.23;39.64;99089.47;4521696;77;28490;-85
2021/08/20 12:50:15;;;;;;;3.60;1.82;;;;;;;30.53;38.92;99086.91;4511587;77;28527;-87
2021/08/20 12:56:25;;;;;;;2.22;1.90;;;;;;;30.27;38.64;99084.22;4523922;77;28512;-87
2021/08/20 13:02:27;;;;;;;2.30;1.82;;;;;;;30.80;38.86;99084.31;4518485;76;28535;-87
2021/08/20 13:08:31;;;;;;;2.65;1.80;;;;;;;30.91;39.27;99082.32;4558228;76;28573;-86
2021/08/20 13:14:33;;;;;;;2.22;1.90;;;;;;;30.84;39.40;99081.61;4550816;76;28459;-81
2021/08/20 13:20:34;;;;;;;4.12;2.02;;;;;;;30.88;39.65;99090.22;4565565;76;28468;-82
2021/08/20 13:26:36;;;;;;;5.60;2.12;;;;;;;30.92;39.58;99085.31;4563531;76;28480;-82
2021/08/20 13:32:40;;;;;;;5.17;2.20;;;;;;;31.14;39.90;99078.19;4583288;76;28524;-81
2021/08/20 13:38:41;;;;;;;3.27;2.00;;;;;;;30.76;40.58;99082.03;4576994;77;28464;-82
2021/08/20 13:44:43;;;;;;;3.60;2.33;;;;;;;30.56;39.39;99076.47;4555505;77;28459;-82
2021/08/20 13:50:45;;;;;;;4.47;2.08;;;;;;;30.33;39.96;99079.19;4562691;77;28533;-82
2021/08/20 13:56:46;;;;;;;2.95;2.00;;;;;;;30.44;40.58;99080.78;4544513;77;28520;-82
2021/08/20 14:02:50;;;;;;;3.12;2.00;;;;;;;30.26;40.75;99079.84;4563785;77;28482;-82
2021/08/20 14:08:51;;;;;;;3.75;2.00;;;;;;;30.23;42.04;99081.15;4548154;76;28512;-83
2021/08/20 14:14:52;;;;;;;3.80;2.30;;;;;;;29.77;42.14;99071.39;4560869;76;28453;-82
2021/08/20 14:20:54;;;;;;;2.87;1.95;;;;;;;29.48;42.09;99072.91;4573581;76;28504;-83
2021/08/20 14:26:55;;;;;;;4.75;2.20;;;;;;;29.28;42.51;99076.72;4555653;76;28528;-82
2021/08/20 14:32:59;;;;;;;4.35;2.27;;;;;;;29.32;43.87;99083.95;4541491;77;28434;-84
2021/08/20 14:39:01;;;;;;;3.95;2.25;;;;;;;29.23;43.88;99084.70;4571510;76;28471;-85
2021/08/20 14:45:02;;;;;;;4.33;2.58;;;;;;;28.82;44.80;99082.07;4555704;76;28487;-82
2021/08/20 14:51:04;;;;;;;2.98;2.30;;;;;;;28.49;44.72;99090.02;4547553;76;28515;-82
2021/08/20 14:57:07;;;;;;;3.95;2.00;;;;;;;28.36;44.92;99091.42;4555322;76;28417;-81
2021/08/20 15:03:09;;;;;;;2.87;1.87;;;;;;;28.37;44.78;99081.97;4558150;76;28546;-82
2021/08/20 15:09:11;;;;;;;3.17;2.00;;;;;;;28.41;44.70;99087.60;4563267;76;28485;-81
2021/08/20 15:15:15;;;;;;;2.87;2.22;;;;;;;28.42;47.91;99080.13;4569932;76;28447;-82
2021/08/20 15:21:16;;;;;;;2.92;2.08;;;;;;;28.21;52.60;99083.28;4564937;76;28516;-81
2021/08/20 15:27:17;;;;;;;6.25;2.55;;;;;;;28.07;55.14;99083.65;4471254;77;28442;-81
2021/08/20 15:33:18;;;;;;;6.03;2.33;;;;;;;27.90;59.69;99076.39;4385854;80;28501;-82
2021/08/20 15:39:20;;;;;;;3.83;1.98;;;;;;;28.02;61.02;99072.82;4385439;79;28489;-81
2021/08/20 15:45:21;;;;;;;3.75;2.10;;;;;;;27.96;65.08;99068.11;4387688;80;28480;-81
2021/08/20 15:51:31;;;;;;;3.92;2.47;;;;;;;27.97;64.86;99076.63;4464875;78;28510;-83
2021/08/20 15:57:37;;;;;;;6.40;2.40;;;;;;;27.84;64.62;99079.19;4373519;79;28477;-81
2021/08/20 16:03:39;;;;;;;5.03;2.22;;;;;;;27.61;67.17;99084.36;4401444;79;28470;-82
2021/08/20 16:09:40;;;;;;;4.35;2.22;;;;;;;27.51;65.55;99083.64;4379358;79;28545;-85
2021/08/20 16:15:41;;;;;;;6.00;2.37;;;;;;;27.35;69.93;99086.86;4380405;79;28486;-85
2021/08/20 16:21:43;;;;;;;4.90;2.30;;;;;;;27.33;69.79;99086.37;4373609;79;28489;-85
2021/08/20 16:27:44;;;;;;;3.80;2.00;;;;;;;27.25;69.18;99080.64;4379408;79;28554;-86
2021/08/20 16:33:48;;;;;;;5.92;2.98;;;;;;;27.39;68.36;99083.63;4385201;80;28457;-82
2021/08/20 16:39:50;;;;;;;3.77;2.60;;;;;;;27.22;71.30;99079.13;4386209;80;28508;-82
2021/08/20 16:45:51;;;;;;;4.33;2.55;;;;;;;27.53;65.56;99094.34;4534520;76;28502;-81
2021/08/20 16:51:53;;;;;;;10.60;3.10;;;;;;;27.31;70.80;99095.58;4535024;77;28519;-82
2021/08/20 16:57:54;;;;;;;4.55;2.62;;;;;;;27.12;73.85;99095.53;4530651;77;28530;-82
2021/08/20 17:03:56;;;;;;;6.90;2.85;;;;;;;27.04;73.87;99097.84;4550631;76;28538;-82
2021/08/20 17:09:58;;;;;;;5.47;2.75;;;;;;;26.97;74.35;99096.98;4535817;76;28516;-81
2021/08/20 17:15:59;;;;;;;10.80;3.05;;;;;;;27.18;72.06;99094.73;4467687;77;28475;-81
2021/08/20 17:22:01;;;;;;;11.65;3.08;;;;;;;26.99;73.62;99092.75;4463688;78;28493;-82
2021/08/20 17:28:02;;;;;;;9.05;2.83;;;;;;;26.97;75.08;99093.67;4561359;76;28504;-81
2021/08/20 17:34:05;;;;;;;6.83;2.72;;;;;;;26.82;75.91;99095.67;4548924;77;28575;-81
2021/08/20 17:40:11;;;;;;;5.60;3.02;;;;;;;26.61;79.35;99088.80;4556164;76;28511;-83
2021/08/20 17:46:12;;;;;;;6.13;3.23;;;;;;;26.56;77.30;99094.77;4548043;76;43405;-81
2021/08/20 17:52:13;;;;;;;6.50;3.17;;;;;;;26.42;78.76;99095.59;4557209;76;28542;-80
2021/08/20 17:58:15;;;;;;;6.72;3.35;;;;;;;26.25;79.22;99095.98;4560025;76;28515;-79
2021/08/20 18:04:17;;;;;;;7.58;3.33;;;;;;;26.33;78.81;99102.56;4562467;76;28550;-81
2021/08/20 18:10:19;;;;;;;6.17;3.80;;;;;;;26.02;79.92;99111.97;4565364;76;29046;-83
2021/08/20 18:16:20;;;;;;;9.83;5.10;;;;;;;25.99;78.12;99120.33;4564785;76;28526;-81
2021/08/20 18:22:21;;;;;;;7.05;4.28;;;;;;;26.11;76.28;99129.27;4550632;76;28516;-81
2021/08/20 18:28:23;;;;;;;8.25;4.37;;;;;;;25.97;75.74;99136.94;4558238;76;28538;-82
2021/08/20 18:34:25;;;;;;;9.25;4.53;;;;;;;25.82;78.68;99135.00;4479110;78;28487;-82
2021/08/20 18:40:26;;;;;;;10.93;4.42;;;;;;;25.91;79.86;99141.05;4551319;76;28550;-82
2021/08/20 18:46:28;;;;;;;8.25;4.75;;;;;;;25.65;82.29;99148.28;4568116;76;28518;-81
2021/08/20 18:52:29;;;;;;;8.95;4.80;;;;;;;25.47;84.95;99144.76;4574614;76;28930;-82
2021/08/20 18:58:31;;;;;;;9.70;4.83;;;;;;;25.53;84.69;99147.58;4548639;76;28517;-82
2021/08/20 19:04:34;;;;;;;8.60;4.33;;;;;;;25.56;83.73;99155.17;4559995;76;28500;-83
2021/08/20 19:10:35;;;;;;;9.63;4.67;;;;;;;25.44;85.93;99153.09;4555557;76;28486;-82
2021/08/20 19:16:36;;;;;;;7.78;5.10;;;;;;;25.42;83.68;99151.25;4549589;77;28444;-83
2021/08/20 19:22:38;;;;;;;8.45;4.47;;;;;;;25.27;83.92;99155.88;4560935;77;28467;-86
2021/08/20 19:28:43;;;;;;;7.83;4.33;;;;;;;25.38;78.90;99160.48;4513495;76;28546;-85
2021/08/20 19:34:44;;;;;;;6.40;4.45;;;;;;;25.13;83.37;99167.07;4543648;76;28464;-84
2021/08/20 19:40:46;;;;;;;15.88;9.38;;;;;;;25.05;78.80;99167.33;4547625;76;28417;-84
2021/08/20 19:46:51;;;;;;;8.78;5.15;;;;;;;25.05;80.85;99165.40;4516427;77;28492;-90
2021/08/20 19:52:52;;;;;;;7.37;4.45;;;;;;;24.82;84.40;99170.81;4549338;76;28447;-86
2021/08/20 19:58:54;;;;;;;8.38;4.83;;;;;;;24.97;81.15;99168.96;4547821;76;28459;-83
2021/08/20 20:04:55;;;;;;;6.85;5.05;;;;;;;24.93;81.30;99170.73;4522814;77;28472;-86
2021/08/20 20:10:57;;;;;;;8.43;4.70;;;;;;;24.95;77.44;99169.03;4517730;78;28493;-91
2021/08/20 20:17:05;;;;;;;8.65;5.47;;;;;;;24.82;80.16;99175.76;4543246;77;28580;-90
2021/08/20 20:23:08;;;;;;;8.45;4.92;;;;;;;24.87;81.25;99173.41;4577099;77;28443;-88
2021/08/20 20:29:11;;;;;;;9.98;5.28;;;;;;;24.89;79.94;99178.02;4551877;76;28486;-87
2021/08/20 20:35:17;;;;;;;9.45;6.05;;;;;;;24.70;83.07;99180.48;4445024;78;28501;-87
2021/08/20 20:41:19;;;;;;;10.63;5.67;;;;;;;24.74;81.33;99189.72;4364628;80;28540;-87
2021/08/20 20:47:20;;;;;;;12.93;6.53;;;;;;;24.58;86.14;99192.69;4365420;79;28484;-89
2021/08/20 20:53:22;;;;;;;7.78;5.83;;;;;;;24.49;84.65;99200.34;4370270;80;28462;-87
2021/08/20 20:59:23;;;;;;;12.60;8.18;;;;;;;24.33;87.53;99201.95;4389892;79;28509;-87
2021/08/20 21:05:25;;;;;;;11.22;7.83;;;;;;;24.31;86.64;99205.55;4396193;79;28615;-86
2021/08/20 21:11:31;;;;;;;10.82;6.85;;;;;;;24.10;89.52;99215.75;4403288;79;28473;-86
2021/08/20 21:17:31;;;;;;;13.75;8.23;;;;;;;24.10;91.66;99230.86;4380352;79;28502;-85
2021/08/20 21:23:34;;;;;;;25.23;16.25;;;;;;;24.23;89.19;99230.51;4395072;79;28555;-86
2021/08/20 21:29:35;;;;;;;15.93;9.20;;;;;;;24.31;85.79;99228.36;4466438;78;28507;-87
2021/08/20 21:35:36;;;;;;;11.88;8.08;;;;;;;24.50;85.16;99236.89;4383596;80;28509;-86
2021/08/20 21:41:38;;;;;;;21.93;9.35;;;;;;;24.45;83.87;99240.60;4419812;78;28450;-85
2021/08/20 21:47:43;;;;;;;14.85;8.15;;;;;;;24.54;85.97;99247.48;4380517;80;28535;-87
2021/08/20 21:53:51;;;;;;;16.63;8.77;;;;;;;24.23;91.44;99247.81;4379298;79;28500;-88
2021/08/20 21:59:52;;;;;;;14.10;8.20;;;;;;;24.23;91.17;99253.85;4359170;79;28462;-88
2021/08/20 22:05:53;;;;;;;17.25;7.55;;;;;;;24.04;91.50;99252.16;4387446;78;28520;-87
2021/08/20 22:11:55;;;;;;;15.53;7.87;;;;;;;24.01;90.93;99253.34;4373485;79;28445;-87
2021/08/20 22:17:59;;;;;;;13.48;8.05;;;;;;;24.08;94.29;99257.28;4573630;76;28442;-85
2021/08/20 22:24:05;;;;;;;13.78;7.95;;;;;;;24.30;88.32;99262.45;4419242;79;28891;-86
2021/08/20 22:30:11;;;;;;;10.50;7.37;;;;;;;24.26;90.27;99262.83;4456578;78;28487;-84
2021/08/20 22:36:16;;;;;;;15.23;7.80;;;;;;;24.01;93.47;99270.62;4472862;77;28443;-88
2021/08/20 22:42:19;;;;;;;12.88;7.58;;;;;;;24.09;91.38;99278.67;4455379;78;28479;-89
2021/08/20 22:48:20;;;;;;;20.43;8.20;;;;;;;24.07;90.14;99281.75;4553126;77;28453;-88
2021/08/20 22:54:21;;;;;;;10.20;6.67;;;;;;;24.11;88.06;99281.94;4555731;77;28445;-88
2021/08/20 23:00:25;;;;;;;13.38;7.72;;;;;;;24.00;91.12;99279.16;4539473;76;28440;-87
2021/08/20 23:06:26;;;;;;;11.83;7.00;;;;;;;24.32;87.67;99276.67;4560819;77;28456;-88
2021/08/20 23:12:27;;;;;;;11.60;7.00;;;;;;;24.45;89.04;99276.32;4544183;77;28512;-87
2021/08/20 23:18:28;;;;;;;11.63;7.15;;;;;;;24.48;89.04;99281.17;4551927;77;28509;-87
2021/08/20 23:24:30;;;;;;;13.35;6.75;;;;;;;24.30;88.38;99278.11;4552574;77;28512;-86
2021/08/20 23:30:34;;;;;;;10.78;6.85;;;;;;;24.27;85.60;99277.38;4545740;77;28514;-86
2021/08/20 23:36:35;;;;;;;10.05;6.37;;;;;;;24.35;84.93;99279.36;4589125;77;28463;-87
2021/08/20 23:42:37;;;;;;;10.70;6.17;;;;;;;24.15;88.08;99287.58;4571257;77;28473;-88
2021/08/20 23:48:38;;;;;;;12.07;6.12;;;;;;;24.43;86.35;99286.00;4595190;77;28490;-85
2021/08/20 23:54:39;;;;;;;10.05;6.53;;;;;;;24.11;88.19;99289.35;4599261;77;28467;-86
